createdAt,value
2023-08-06T00:01:08.111Z,897.08
2023-08-06T00:06:10.054Z,901.17
2023-08-06T00:11:11.888Z,903.30
2023-08-06T00:16:14.103Z,903.42
2023-08-06T00:21:16.217Z,895.47
2023-08-06T00:26:18.173Z,904.92
2023-08-06T00:31:20.106Z,910.33
2023-08-06T00:36:21.993Z,907.65
2023-08-06T00:41:24.723Z,912.00
2023-08-06T00:46:27.752Z,906.70
2023-08-06T00:51:29.650Z,903.70
2023-08-06T00:56:31.756Z,881.67
2023-08-06T01:01:33.781Z,889.88
2023-08-06T01:06:46.498Z,893.55
2023-08-06T01:12:11.766Z,891.67
2023-08-06T01:17:13.847Z,882.78
2023-08-06T01:22:15.614Z,882.53
2023-08-06T01:27:40.713Z,868.35
2023-08-06T01:32:44.545Z,877.22
2023-08-06T01:37:47.045Z,849.88
2023-08-06T01:42:49.043Z,848.83
2023-08-06T01:47:51.135Z,867.72
2023-08-06T01:52:52.988Z,873.03
2023-08-06T01:57:55.150Z,835.13
2023-08-06T02:02:57.106Z,813.05
2023-08-06T02:07:59.216Z,777.80
2023-08-06T02:13:01.214Z,776.75
2023-08-06T02:18:03.234Z,789.47
2023-08-06T02:23:05.166Z,796.95
2023-08-06T02:28:06.939Z,757.88
2023-08-06T02:33:08.779Z,772.85
2023-08-06T02:38:10.697Z,749.47
2023-08-06T02:43:12.769Z,768.75
2023-08-06T02:48:14.627Z,793.88
2023-08-06T02:53:17.583Z,771.60
2023-08-06T02:58:23.752Z,782.60
2023-08-06T03:03:36.676Z,794.22
2023-08-06T03:08:40.730Z,773.25
2023-08-06T03:13:42.982Z,779.97
2023-08-06T03:18:46.356Z,750.22
2023-08-06T03:23:49.112Z,779.88
2023-08-06T03:28:53.616Z,786.28
2023-08-06T03:33:56.035Z,767.25
2023-08-06T03:39:01.290Z,771.83
2023-08-06T03:44:05.315Z,778.08
2023-08-06T03:49:07.586Z,757.72
2023-08-06T03:54:10.005Z,777.90
2023-08-06T03:59:12.136Z,795.08
2023-08-06T04:04:14.225Z,786.03
2023-08-06T04:09:16.137Z,805.80
2023-08-06T04:14:17.960Z,826.00
2023-08-06T04:19:19.960Z,824.80
2023-08-06T04:24:21.818Z,821.97
2023-08-06T04:29:23.613Z,842.70
2023-08-06T04:34:25.667Z,850.15
2023-08-06T04:39:28.178Z,845.05
2023-08-06T04:44:31.173Z,811.30
2023-08-06T04:49:33.124Z,826.92
2023-08-06T04:54:34.933Z,820.67
2023-08-06T04:59:36.940Z,819.05
2023-08-06T05:04:38.808Z,820.00
2023-08-06T05:09:40.960Z,773.60
2023-08-06T05:14:42.880Z,752.45
2023-08-06T05:19:44.799Z,759.72
2023-08-06T05:24:46.648Z,738.00
2023-08-06T05:29:49.175Z,747.17
2023-08-06T05:34:51.008Z,772.95
2023-08-06T05:39:52.880Z,773.53
2023-08-06T05:44:54.717Z,805.55
2023-08-06T05:49:56.617Z,852.55
2023-08-06T05:54:58.427Z,843.45
2023-08-06T06:00:00.247Z,889.20
2023-08-06T06:05:02.178Z,870.72
2023-08-06T06:10:05.143Z,887.65
2023-08-06T06:15:07.224Z,907.17
2023-08-06T06:20:09.226Z,894.55
2023-08-06T06:25:11.447Z,891.88
2023-08-06T06:30:13.652Z,895.17
2023-08-06T06:35:15.491Z,879.58
2023-08-06T06:40:17.782Z,887.90
2023-08-06T06:45:19.608Z,883.63
2023-08-06T06:50:21.418Z,875.33
2023-08-06T06:55:23.326Z,909.83
2023-08-06T07:00:25.106Z,905.90
2023-08-06T07:05:27.052Z,883.17
2023-08-06T07:10:28.818Z,897.15
2023-08-06T07:15:30.762Z,887.00
2023-08-06T07:20:32.796Z,896.70
2023-08-06T07:25:34.591Z,911.03
2023-08-06T07:30:39.593Z,917.25
2023-08-06T07:35:41.962Z,881.40
2023-08-06T07:40:44.288Z,861.40
2023-08-06T07:45:46.278Z,817.15
2023-08-06T07:50:51.535Z,816.85
2023-08-06T07:55:54.245Z,841.95
2023-08-06T08:00:56.301Z,817.17
2023-08-06T08:05:58.827Z,836.70
2023-08-06T08:11:02.062Z,824.42
2023-08-06T08:16:04.116Z,846.65
2023-08-06T08:21:06.002Z,916.45
2023-08-06T08:26:07.901Z,886.67
2023-08-06T08:31:10.538Z,870.05
2023-08-06T08:36:12.370Z,845.13
2023-08-06T08:41:14.244Z,846.65
2023-08-06T08:46:16.267Z,847.22
2023-08-06T08:51:18.412Z,876.85
2023-08-06T08:56:20.355Z,830.28
2023-08-06T09:01:23.245Z,832.20
2023-08-06T09:06:28.256Z,839.60
2023-08-06T09:11:32.650Z,839.80
2023-08-06T09:16:35.662Z,839.85
2023-08-06T09:21:39.951Z,840.45
2023-08-06T09:26:44.742Z,828.30
2023-08-06T09:31:47.855Z,820.95
2023-08-06T09:36:49.717Z,820.30
2023-08-06T09:41:56.628Z,824.63
2023-08-06T09:46:59.557Z,835.95
2023-08-06T09:52:01.668Z,826.53
2023-08-06T09:57:03.817Z,809.50
2023-08-06T10:02:11.677Z,823.03
2023-08-06T10:07:13.971Z,812.58
2023-08-06T10:12:16.624Z,808.78
2023-08-06T10:17:18.749Z,816.55
2023-08-06T10:22:20.706Z,820.65
2023-08-06T10:27:23.073Z,835.08
2023-08-06T10:32:44.882Z,815.30
2023-08-06T10:37:46.760Z,827.15
2023-08-06T10:42:48.616Z,826.97
2023-08-06T10:47:51.031Z,831.05
2023-08-06T10:52:53.308Z,808.20
2023-08-06T10:57:55.452Z,816.10
2023-08-06T11:03:00.243Z,830.75
2023-08-06T11:08:02.218Z,832.30
2023-08-06T11:13:08.808Z,828.50
2023-08-06T11:18:10.684Z,834.77
2023-08-06T11:23:12.564Z,844.72
2023-08-06T11:28:14.407Z,833.88
2023-08-06T11:33:21.003Z,838.20
2023-08-06T11:38:22.886Z,851.03
2023-08-06T11:43:25.728Z,861.15
2023-08-06T11:48:27.565Z,854.13
2023-08-06T11:53:30.286Z,834.67
2023-08-06T11:58:32.201Z,851.08
2023-08-06T12:03:34.249Z,839.83
2023-08-06T12:08:36.122Z,861.65
2023-08-06T12:13:37.980Z,852.90
2023-08-06T12:18:39.835Z,869.10
2023-08-06T12:23:44.539Z,860.38
2023-08-06T12:28:46.391Z,857.97
2023-08-06T12:33:48.273Z,872.67
2023-08-06T12:38:50.252Z,889.80
2023-08-06T12:43:52.110Z,896.03
2023-08-06T12:48:53.922Z,875.72
2023-08-06T12:53:55.676Z,871.58
2023-08-06T12:58:57.485Z,876.80
2023-08-06T13:04:11.593Z,897.58
2023-08-06T13:09:21.483Z,897.75
2023-08-06T13:14:23.307Z,896.78
2023-08-06T13:19:25.113Z,886.38
2023-08-06T13:24:28.606Z,905.55
2023-08-06T13:29:30.409Z,881.90
2023-08-06T13:34:32.286Z,882.67
2023-08-06T13:39:34.129Z,886.95
2023-08-06T13:44:37.183Z,883.78
2023-08-06T13:49:39.208Z,907.38
2023-08-06T13:54:41.009Z,894.40
2023-08-06T13:59:44.931Z,892.63
2023-08-06T14:04:46.815Z,910.17
2023-08-06T14:09:48.752Z,917.63
2023-08-06T14:14:50.564Z,915.13
2023-08-06T14:19:52.449Z,925.13
2023-08-06T14:24:54.491Z,907.03
2023-08-06T14:29:58.728Z,890.67
2023-08-06T14:35:11.062Z,914.55
2023-08-06T14:40:13.206Z,895.63
2023-08-06T14:45:15.382Z,900.35
2023-08-06T14:50:17.227Z,899.97
2023-08-06T14:55:24.222Z,895.70
2023-08-06T15:00:26.727Z,887.63
2023-08-06T15:05:31.846Z,888.60
2023-08-06T15:10:33.665Z,885.58
2023-08-06T15:15:37.924Z,888.35
2023-08-06T15:20:42.221Z,891.53
2023-08-06T15:25:44.083Z,878.47
2023-08-06T15:30:52.536Z,884.40
2023-08-06T15:35:57.017Z,887.08
2023-08-06T15:41:01.913Z,884.60
2023-08-06T15:46:03.678Z,877.88
2023-08-06T15:51:06.193Z,885.03
2023-08-06T15:56:08.078Z,873.55
2023-08-06T16:01:09.906Z,870.80
2023-08-06T16:06:11.736Z,868.45
2023-08-06T16:11:13.505Z,885.13
2023-08-06T16:16:15.315Z,870.90
2023-08-06T16:21:17.144Z,861.20
2023-08-06T16:26:18.958Z,857.53
2023-08-06T16:31:21.596Z,861.20
2023-08-06T16:36:24.131Z,859.78
2023-08-06T16:41:25.975Z,858.53
2023-08-06T16:46:27.768Z,868.05
2023-08-06T16:51:34.439Z,907.55
2023-08-06T17:01:40.780Z,855.60
2023-08-06T17:06:42.695Z,863.05
2023-08-06T17:11:45.426Z,861.50
2023-08-06T17:16:48.625Z,872.17
2023-08-06T17:21:50.368Z,862.45
2023-08-06T17:26:59.427Z,857.72
2023-08-06T17:32:01.266Z,858.83
2023-08-06T17:37:06.199Z,867.63
2023-08-06T17:42:11.538Z,871.58
2023-08-06T17:47:23.282Z,858.60
2023-08-06T17:52:32.935Z,843.67
2023-08-06T17:57:34.698Z,864.20
2023-08-06T18:02:36.759Z,864.53
2023-08-06T18:07:38.723Z,852.20
2023-08-06T18:12:43.497Z,844.60
2023-08-06T18:17:47.628Z,838.33
2023-08-06T18:22:49.387Z,842.70
2023-08-06T18:27:51.296Z,841.88
2023-08-06T18:32:55.494Z,840.17
2023-08-06T18:37:59.905Z,832.55
2023-08-06T18:43:01.717Z,824.63
2023-08-06T18:48:03.552Z,862.33
2023-08-06T18:53:05.536Z,834.45
2023-08-06T18:58:10.363Z,818.70
2023-08-06T19:03:12.527Z,829.08
2023-08-06T19:08:14.338Z,821.35
2023-08-06T19:13:16.329Z,820.60
2023-08-06T19:18:18.208Z,814.10
2023-08-06T19:23:21.275Z,819.35
2023-08-06T19:28:23.685Z,813.75
2023-08-06T19:33:25.608Z,807.65
2023-08-06T19:38:27.464Z,817.70
2023-08-06T19:43:29.850Z,814.30
2023-08-06T19:48:33.880Z,804.95
2023-08-06T19:53:35.967Z,808.30
2023-08-06T19:58:54.284Z,809.85
2023-08-06T20:03:57.320Z,812.53
2023-08-06T20:08:59.159Z,809.88
2023-08-06T20:14:00.937Z,804.13
2023-08-06T20:19:02.819Z,657.80
2023-08-06T20:24:04.641Z,580.53
2023-08-06T20:29:10.956Z,636.08
2023-08-06T20:34:12.899Z,638.53
2023-08-06T20:39:14.652Z,682.85
2023-08-06T20:44:16.471Z,640.55
2023-08-06T20:49:18.373Z,724.40
2023-08-06T20:54:20.232Z,741.55
2023-08-06T20:59:21.993Z,758.58
2023-08-06T21:04:24.179Z,759.42
2023-08-06T21:09:25.960Z,746.38
2023-08-06T21:14:27.858Z,760.30
2023-08-06T21:19:29.654Z,793.83
2023-08-06T21:24:31.388Z,770.90
2023-08-06T21:29:33.187Z,799.50
2023-08-06T21:34:34.920Z,778.67
2023-08-06T21:39:36.626Z,756.17
2023-08-06T21:44:38.394Z,730.28
2023-08-06T21:49:40.171Z,719.17
2023-08-06T21:54:41.985Z,716.35
2023-08-06T21:59:43.693Z,734.20
2023-08-06T22:04:45.510Z,760.50
2023-08-06T22:09:47.315Z,753.35
2023-08-06T22:14:49.111Z,750.30
2023-08-06T22:19:50.960Z,790.70
2023-08-06T22:24:52.756Z,780.45
2023-08-06T22:29:54.558Z,779.40
2023-08-06T22:34:57.322Z,769.03
2023-08-06T22:40:02.259Z,733.65
2023-08-06T22:45:04.248Z,718.08
2023-08-06T22:50:09.812Z,734.78
2023-08-06T22:55:21.940Z,741.13
2023-08-06T23:00:33.542Z,750.35
2023-08-06T23:05:35.338Z,756.95
2023-08-06T23:10:37.125Z,788.08
2023-08-06T23:15:38.979Z,777.85
2023-08-06T23:20:40.786Z,793.45
2023-08-06T23:25:42.507Z,795.33
2023-08-06T23:30:48.076Z,794.17
2023-08-06T23:35:49.809Z,794.28
2023-08-06T23:40:51.588Z,785.00
2023-08-06T23:45:53.759Z,795.70
2023-08-06T23:50:55.677Z,768.08
2023-08-06T23:55:57.448Z,751.60
